Golden State — WHDV — position and weather

sailwx.info

Track history (hours):
 
Tides and Currents Weather Stations Pressure Air Temp Water Temp Dewpoint Dewpoint Depression Visibility Wind Speed Wind Dir Waves Ship Positions

Golden State

Owner: Crowley Petroleum Services, Jacksonville, FL. More information available from US FCC via Universal Licensing System and Coast Guard Vessel Documentation Center.

Last reported at 2018-Jun-14 17:50 UTC. Time now 2018-Jun-24 22:29 UTC.
Position N 25°31' W 080°02'.
Warning: this ship's position is 10 days out of date.

Length 183 m; draft 9.1 m.

Type: Tanker. MMSI: 367342960.

Date/timePositionNaut miles runAvg speedWind from/ knotsBaromVisibWave heightAir tempDewpointWater temp
2018-Jun-14 17:50N 25°31' W 080°02'411.9
2018-Jun-14 17:31N 25°35' W 080°01'612.0
2018-Jun-14 17:01N 25°41' W 080°01'612.3
2018-Jun-14 16:31N 25°47' W 079°59'612.4
2018-Jun-14 16:00N 25°53' W 079°58'612.5
2018-Jun-14 15:31N 25°59' W 079°58'611.2
2018-Jun-14 15:00N 26°04' W 080°02'5 9.4
2018-Jun-14 14:31N 26°06' W 080°06'1 1.7
2018-Jun-14 14:00N 26°05' W 080°07'0 0.0
2018-Jun-14 13:23N 26°05' W 080°07'0 0.0
2018-Jun-14 12:53N 26°05' W 080°07'0 0.0
2018-Jun-14 12:23N 26°05' W 080°07'0 0.0
2018-Jun-14 11:53N 26°05' W 080°07'0 0.0
2018-Jun-14 11:23N 26°05' W 080°07'0 0.0
2018-Jun-14 10:53N 26°05' W 080°07'0 0.0
2018-Jun-14 10:26N 26°05' W 080°07'0 0.0
2018-Jun-14 09:56N 26°05' W 080°07'0 0.0
2018-Jun-14 09:26N 26°05' W 080°07'0 0.0
2018-Jun-14 08:56N 26°05' W 080°07'0 0.0
2018-Jun-14 08:26N 26°05' W 080°07'0 0.0
2018-Jun-14 07:59N 26°05' W 080°07'0 0.0
2018-Jun-14 07:26N 26°05' W 080°07'0 0.0
2018-Jun-14 06:56N 26°05' W 080°07'0 0.0
2018-Jun-14 06:29N 26°05' W 080°07'0 0.0
2018-Jun-14 05:59N 26°05' W 080°07'0 0.0
2018-Jun-14 05:29N 26°05' W 080°07'0 0.0
2018-Jun-14 04:59N 26°05' W 080°07'0 0.0
2018-Jun-14 04:29N 26°05' W 080°07'0 0.0
2018-Jun-14 03:59N 26°05' W 080°07'0 0.0
2018-Jun-14 03:17N 26°05' W 080°07'0 0.0
2018-Jun-14 02:47N 26°05' W 080°07'0 0.0
2018-Jun-14 02:20N 26°05' W 080°07'0 0.0
2018-Jun-14 01:50N 26°05' W 080°07'0 0.0
2018-Jun-14 01:20N 26°05' W 080°07'0 0.0
2018-Jun-14 00:50N 26°05' W 080°07'0 0.0
2018-Jun-14 00:20N 26°05' W 080°07'0 0.0
2018-Jun-13 23:53N 26°05' W 080°07'0 0.0
2018-Jun-13 23:23N 26°05' W 080°07'0 0.0
2018-Jun-13 22:53N 26°05' W 080°07'0 0.0
2018-Jun-13 22:23N 26°05' W 080°07'0 0.0
2018-Jun-13 21:53N 26°05' W 080°07'0 0.0
2018-Jun-13 21:20N 26°05' W 080°07'0 0.0
2018-Jun-13 20:56N 26°05' W 080°07'0 0.0
2018-Jun-13 20:26N 26°05' W 080°07'0 0.0
2018-Jun-13 19:56N 26°05' W 080°07'0 0.0
2018-Jun-13 19:26N 26°05' W 080°07'0 0.0
2018-Jun-13 18:56N 26°05' W 080°07'0 0.0
2018-Jun-13 18:29N 26°05' W 080°07'0 0.0
2018-Jun-13 17:56N 26°05' W 080°07'0 0.0
2018-Jun-13 17:29N 26°05' W 080°07'0 0.0
2018-Jun-13 16:59N 26°05' W 080°07'0 0.0
2018-Jun-13 16:29N 26°05' W 080°07'0 0.0
2018-Jun-13 15:56N 26°05' W 080°07'0 0.0
2018-Jun-13 15:29N 26°05' W 080°07'0 0.0
2018-Jun-13 14:59N 26°05' W 080°07'0 0.0
2018-Jun-13 14:26N 26°05' W 080°07'0 0.0
2018-Jun-13 13:44N 26°05' W 080°07'0 0.0
2018-Jun-13 13:29N 26°05' W 080°07'0 0.0
2018-Jun-13 12:59N 26°05' W 080°07'0 0.0
2018-Jun-13 12:29N 26°05' W 080°07'0 0.0
2018-Jun-13 11:59N 26°05' W 080°07'0 0.0
2018-Jun-13 11:30N 26°05' W 080°07'0 0.9
2018-Jun-13 11:00N 26°06' W 080°07'4 8.4
2018-Jun-13 10:30N 26°06' W 080°02'1 1.3
2018-Jun-13 10:00N 26°06' W 080°03'2 3.4
2018-Jun-13 09:30N 26°07' W 080°05'0 0.0
2018-Jun-13 08:59N 26°07' W 080°04'0 0.0
2018-Jun-13 08:29N 26°07' W 080°04'0 0.0
2018-Jun-13 07:59N 26°07' W 080°05'0 0.0
2018-Jun-13 07:29N 26°07' W 080°04'0 0.0
2018-Jun-13 06:59N 26°07' W 080°04'0 0.1
2018-Jun-13 06:29N 26°07' W 080°04'0 0.0
2018-Jun-13 05:59N 26°07' W 080°04'0 0.0
2018-Jun-13 05:29N 26°07' W 080°04'0 0.1
2018-Jun-13 04:59N 26°07' W 080°05'0 0.3
2018-Jun-13 04:29N 26°07' W 080°05'0 0.1
2018-Jun-13 03:47N 26°07' W 080°05'0 0.1
2018-Jun-13 03:20N 26°07' W 080°05'0 0.0
2018-Jun-13 02:50N 26°06' W 080°05'0 0.0
2018-Jun-13 02:20N 26°06' W 080°05'0 0.0
2018-Jun-13 01:53N 26°06' W 080°05'0 0.0
2018-Jun-13 01:23N 26°06' W 080°05'0 0.0
2018-Jun-13 00:53N 26°06' W 080°05'0 0.0
2018-Jun-13 00:23N 26°06' W 080°05'0 0.0
2018-Jun-12 23:53N 26°06' W 080°05'0 0.0
2018-Jun-12 23:26N 26°06' W 080°05'0 0.0
2018-Jun-12 22:56N 26°06' W 080°05'0 0.0
2018-Jun-12 22:26N 26°06' W 080°05'0 0.0
2018-Jun-12 21:56N 26°06' W 080°05'0 0.0
2018-Jun-12 21:26N 26°06' W 080°05'0 0.0
2018-Jun-12 20:56N 26°06' W 080°05'0 0.0
2018-Jun-12 20:29N 26°06' W 080°05'0 0.0
2018-Jun-12 19:59N 26°06' W 080°05'0 0.0
2018-Jun-12 19:29N 26°06' W 080°05'0 0.1
2018-Jun-12 19:00N 26°07' W 080°05'1 2.4
2018-Jun-12 18:29N 26°05' W 080°04'4 8.6
2018-Jun-12 17:59N 26°01' W 080°02'613.3
2018-Jun-12 17:31N 25°55' W 080°02'714.7
2018-Jun-12 17:01N 25°48' W 080°02'815.3
2018-Jun-12 16:31N 25°40' W 080°02'815.7
2018-Jun-12 16:01N 25°32' W 080°02'816.0
2018-Jun-12 15:31N 25°24' W 080°02'1016.0
2018-Jun-12 14:54N 25°15' W 080°05'  
2018-Jun-06 05:59N 27°50' W 096°56'1 0.6
2018-Jun-06 04:11N 27°51' W 096°56'0 0.0
2018-Jun-06 03:56N 27°51' W 096°56'0 0.0
2018-Jun-06 01:17N 27°51' W 096°56'0 0.0
2018-Jun-05 01:23N 27°51' W 096°56'0 0.0
2018-Jun-05 00:53N 27°51' W 096°56'0 0.1
2018-Jun-05 00:22N 27°51' W 096°56'  
Track history (hours):
 
Tides and Currents Weather Stations Pressure Air Temp Water Temp Dewpoint Dewpoint Depression Visibility Wind Speed Wind Dir Waves Ship Positions

Golden State

Owner: Crowley Petroleum Services, Jacksonville, FL. More information available from US FCC via Universal Licensing System and Coast Guard Vessel Documentation Center.

Last reported at 2018-Jun-14 17:50 UTC. Time now 2018-Jun-24 22:29 UTC.
Position N 25°31' W 080°02'.
Warning: this ship's position is 10 days out of date.

Length 183 m; draft 9.1 m.

Type: Tanker. MMSI: 367342960.

Date/timePositionNaut miles runAvg speedWind from/ knotsBaromVisibWave heightAir tempDewpointWater temp
2018-Jun-14 17:50N 25°31' W 080°02'411.9
2018-Jun-14 17:31N 25°35' W 080°01'612.0
2018-Jun-14 17:01N 25°41' W 080°01'612.3
2018-Jun-14 16:31N 25°47' W 079°59'612.4
2018-Jun-14 16:00N 25°53' W 079°58'612.5
2018-Jun-14 15:31N 25°59' W 079°58'611.2
2018-Jun-14 15:00N 26°04' W 080°02'5 9.4
2018-Jun-14 14:31N 26°06' W 080°06'1 1.7
2018-Jun-14 14:00N 26°05' W 080°07'0 0.0
2018-Jun-14 13:23N 26°05' W 080°07'0 0.0
2018-Jun-14 12:53N 26°05' W 080°07'0 0.0
2018-Jun-14 12:23N 26°05' W 080°07'0 0.0
2018-Jun-14 11:53N 26°05' W 080°07'0 0.0
2018-Jun-14 11:23N 26°05' W 080°07'0 0.0
2018-Jun-14 10:53N 26°05' W 080°07'0 0.0
2018-Jun-14 10:26N 26°05' W 080°07'0 0.0
2018-Jun-14 09:56N 26°05' W 080°07'0 0.0
2018-Jun-14 09:26N 26°05' W 080°07'0 0.0
2018-Jun-14 08:56N 26°05' W 080°07'0 0.0
2018-Jun-14 08:26N 26°05' W 080°07'0 0.0
2018-Jun-14 07:59N 26°05' W 080°07'0 0.0
2018-Jun-14 07:26N 26°05' W 080°07'0 0.0
2018-Jun-14 06:56N 26°05' W 080°07'0 0.0
2018-Jun-14 06:29N 26°05' W 080°07'0 0.0
2018-Jun-14 05:59N 26°05' W 080°07'0 0.0
2018-Jun-14 05:29N 26°05' W 080°07'0 0.0
2018-Jun-14 04:59N 26°05' W 080°07'0 0.0
2018-Jun-14 04:29N 26°05' W 080°07'0 0.0
2018-Jun-14 03:59N 26°05' W 080°07'0 0.0
2018-Jun-14 03:17N 26°05' W 080°07'0 0.0
2018-Jun-14 02:47N 26°05' W 080°07'0 0.0
2018-Jun-14 02:20N 26°05' W 080°07'0 0.0
2018-Jun-14 01:50N 26°05' W 080°07'0 0.0
2018-Jun-14 01:20N 26°05' W 080°07'0 0.0
2018-Jun-14 00:50N 26°05' W 080°07'0 0.0
2018-Jun-14 00:20N 26°05' W 080°07'0 0.0
2018-Jun-13 23:53N 26°05' W 080°07'0 0.0
2018-Jun-13 23:23N 26°05' W 080°07'0 0.0
2018-Jun-13 22:53N 26°05' W 080°07'0 0.0
2018-Jun-13 22:23N 26°05' W 080°07'0 0.0
2018-Jun-13 21:53N 26°05' W 080°07'0 0.0
2018-Jun-13 21:20N 26°05' W 080°07'0 0.0
2018-Jun-13 20:56N 26°05' W 080°07'0 0.0
2018-Jun-13 20:26N 26°05' W 080°07'0 0.0
2018-Jun-13 19:56N 26°05' W 080°07'0 0.0
2018-Jun-13 19:26N 26°05' W 080°07'0 0.0
2018-Jun-13 18:56N 26°05' W 080°07'0 0.0
2018-Jun-13 18:29N 26°05' W 080°07'0 0.0
2018-Jun-13 17:56N 26°05' W 080°07'0 0.0
2018-Jun-13 17:29N 26°05' W 080°07'0 0.0
2018-Jun-13 16:59N 26°05' W 080°07'0 0.0
2018-Jun-13 16:29N 26°05' W 080°07'0 0.0
2018-Jun-13 15:56N 26°05' W 080°07'0 0.0
2018-Jun-13 15:29N 26°05' W 080°07'0 0.0
2018-Jun-13 14:59N 26°05' W 080°07'0 0.0
2018-Jun-13 14:26N 26°05' W 080°07'0 0.0
2018-Jun-13 13:44N 26°05' W 080°07'0 0.0
2018-Jun-13 13:29N 26°05' W 080°07'0 0.0
2018-Jun-13 12:59N 26°05' W 080°07'0 0.0
2018-Jun-13 12:29N 26°05' W 080°07'0 0.0
2018-Jun-13 11:59N 26°05' W 080°07'0 0.0
2018-Jun-13 11:30N 26°05' W 080°07'0 0.9
2018-Jun-13 11:00N 26°06' W 080°07'4 8.4
2018-Jun-13 10:30N 26°06' W 080°02'1 1.3
2018-Jun-13 10:00N 26°06' W 080°03'2 3.4
2018-Jun-13 09:30N 26°07' W 080°05'0 0.0
2018-Jun-13 08:59N 26°07' W 080°04'0 0.0
2018-Jun-13 08:29N 26°07' W 080°04'0 0.0
2018-Jun-13 07:59N 26°07' W 080°05'0 0.0
2018-Jun-13 07:29N 26°07' W 080°04'0 0.0
2018-Jun-13 06:59N 26°07' W 080°04'0 0.1
2018-Jun-13 06:29N 26°07' W 080°04'0 0.0
2018-Jun-13 05:59N 26°07' W 080°04'0 0.0
2018-Jun-13 05:29N 26°07' W 080°04'0 0.1
2018-Jun-13 04:59N 26°07' W 080°05'0 0.3
2018-Jun-13 04:29N 26°07' W 080°05'0 0.1
2018-Jun-13 03:47N 26°07' W 080°05'0 0.1
2018-Jun-13 03:20N 26°07' W 080°05'0 0.0
2018-Jun-13 02:50N 26°06' W 080°05'0 0.0
2018-Jun-13 02:20N 26°06' W 080°05'0 0.0
2018-Jun-13 01:53N 26°06' W 080°05'0 0.0
2018-Jun-13 01:23N 26°06' W 080°05'0 0.0
2018-Jun-13 00:53N 26°06' W 080°05'0 0.0
2018-Jun-13 00:23N 26°06' W 080°05'0 0.0
2018-Jun-12 23:53N 26°06' W 080°05'0 0.0
2018-Jun-12 23:26N 26°06' W 080°05'0 0.0
2018-Jun-12 22:56N 26°06' W 080°05'0 0.0
2018-Jun-12 22:26N 26°06' W 080°05'0 0.0
2018-Jun-12 21:56N 26°06' W 080°05'0 0.0
2018-Jun-12 21:26N 26°06' W 080°05'0 0.0
2018-Jun-12 20:56N 26°06' W 080°05'0 0.0
2018-Jun-12 20:29N 26°06' W 080°05'0 0.0
2018-Jun-12 19:59N 26°06' W 080°05'0 0.0
2018-Jun-12 19:29N 26°06' W 080°05'0 0.1
2018-Jun-12 19:00N 26°07' W 080°05'1 2.4
2018-Jun-12 18:29N 26°05' W 080°04'4 8.6
2018-Jun-12 17:59N 26°01' W 080°02'613.3
2018-Jun-12 17:31N 25°55' W 080°02'714.7
2018-Jun-12 17:01N 25°48' W 080°02'815.3
2018-Jun-12 16:31N 25°40' W 080°02'815.7
2018-Jun-12 16:01N 25°32' W 080°02'816.0
2018-Jun-12 15:31N 25°24' W 080°02'1016.0
2018-Jun-12 14:54N 25°15' W 080°05'  
2018-Jun-06 05:59N 27°50' W 096°56'1 0.6
2018-Jun-06 04:11N 27°51' W 096°56'0 0.0
2018-Jun-06 03:56N 27°51' W 096°56'0 0.0
2018-Jun-06 01:17N 27°51' W 096°56'0 0.0
2018-Jun-05 01:23N 27°51' W 096°56'0 0.0
2018-Jun-05 00:53N 27°51' W 096°56'0 0.1
2018-Jun-05 00:22N 27°51' W 096°56'  

Dump ship's entire track history